Data for 12/30/2008

Time Sea-Level Adjusted Pressure Absolute Pressure Temperature Relative Humidity Dew Point   
(mb) (inHg) (mb) (inHg) (C) (F) (%) (C) (F)
00:05 1014 29.94 843 24.89 -2.5 27.5 60 -9.3 15.2
00:10 1014 29.94 843 24.89 -2.5 27.4 58 -9.6 14.6
00:15 1014 29.94 843 24.89 -2.6 27.4 58 -9.8 14.3
00:20 1014 29.94 843 24.89 -2.7 27.1 58 -9.8 14.3
00:25 1014 29.94 843 24.89 -3 26.7 62 -9.3 15.3
00:30 1014 29.94 843 24.89 -3.2 26.2 58 -10.3 13.4
00:35 1014 29.94 844 24.92 -3.3 26.1 58 -10.4 13.2
00:40 1015 29.97 844 24.92 -3.5 25.7 59 -10.4 13.3
00:45 1015 29.97 844 24.92 -3.7 25.3 60 -10.3 13.5
00:50 1015 29.97 844 24.92 -3.8 25.2 61 -10.2 13.6
00:55 1015 29.97 844 24.92 -3.7 25.3 56 -11.4 11.6
01:00 1015 29.97 844 24.92 -3.5 25.7 54 -11.6 11.1
01:05 1015 29.97 844 24.92 -3.5 25.6 52 -12 10.4
01:10 1015 29.97 844 24.92 -3.5 25.6 52 -12.1 10.2
01:15 1015 29.97 845 24.95 -3.6 25.5 51 -12.2 10
01:20 1015 29.97 845 24.95 -3.7 25.4 51 -12.3 9.8
01:25 1016 30 845 24.95 -3.8 25.2 52 -12.2 10.1
01:30 1016 30 845 24.95 -3.9 25.1 53 -12.1 10.1
01:35 1016 30 845 24.95 -4 24.7 53 -12.2 10
01:40 1016 30 845 24.95 -4.3 24.3 55 -12.1 10.2
01:45 1016 30 845 24.95 -4.5 23.9 56 -12.1 10.3
01:50 1016 30 846 24.98 -4.7 23.6 57 -12 10.4
01:55 1017 30.03 846 24.98 -4.6 23.7 56 -12.1 10.3
02:00 1017 30.03 846 24.98 -4.7 23.6 57 -12.1 10.3
02:05 1017 30.03 846 24.98 -4.9 23.3 56 -12.3 9.9
02:10 1017 30.03 846 24.98 -5 23.1 55 -12.7 9.1
02:15 1017 30.03 846 24.98 -5 23.1 54 -12.8 8.9
02:20 1017 30.03 847 25.01 -5.1 22.8 54 -13 8.6
02:25 1017 30.03 847 25.01 -5.2 22.7 54 -13.2 8.3
02:30 1018 30.06 847 25.01 -5.3 22.5 55 -12.9 8.7
02:35 1018 30.06 847 25.01 -5.3 22.5 56 -12.8 9
02:40 1018 30.06 847 25.01 -5.3 22.5 55 -13 8.7
02:45 1018 30.06 847 25.01 -5.4 22.3 55 -13.1 8.3
02:50 1018 30.06 847 25.01 -5.4 22.3 55 -13.2 8.3
02:55 1018 30.06 847 25.01 -5.4 22.3 53 -13.5 7.8
03:00 1018 30.06 847 25.01 -5.4 22.4 53 -13.5 7.8
03:05 1018 30.06 847 25.01 -5.4 22.3 53 -13.5 7.7
03:10 1018 30.06 847 25.01 -5.4 22.2 53 -13.7 7.4
03:15 1018 30.06 848 25.04 -5.6 22 53 -13.8 7.2
03:20 1019 30.09 848 25.04 -5.9 21.4 54 -13.8 7.1
03:25 1019 30.09 848 25.04 -6.2 20.9 53 -14.2 6.5
03:30 1019 30.09 848 25.04 -6 21.1 52 -14.3 6.2
03:35 1019 30.09 848 25.04 -5.9 21.3 50 -14.9 5.2
03:40 1019 30.09 848 25.04 -5.8 21.6 49 -14.9 5.2
03:45 1019 30.09 848 25.04 -5.6 21.9 47 -15.2 4.7
03:50 1019 30.09 848 25.04 -5.4 22.4 45 -15.5 4.2
03:55 1019 30.09 848 25.04 -5.1 22.8 43 -15.8 3.5
04:00 1019 30.09 848 25.04 -4.8 23.4 43 -15.5 4
04:05 1019 30.09 848 25.04 -4.8 23.3 45 -15.1 4.8
04:10 1019 30.09 848 25.04 -5 22.9 44 -15.4 4.3
04:15 1019 30.09 848 25.04 -5.3 22.5 44 -15.7 3.7
04:20 1019 30.09 848 25.04 -5.2 22.6 45 -15.4 4.3
04:25 1019 30.09 848 25.04 -5.4 22.3 46 -15.3 4.4
04:30 1019 30.09 848 25.04 -5.5 22 45 -15.7 3.8
04:35 1019 30.09 848 25.04 -5.2 22.6 44 -15.8 3.5
04:40 1019 30.09 848 25.04 -4.9 23.2 42 -15.9 3.3
04:45 1019 30.09 849 25.07 -4.9 23.2 43 -15.7 3.7
04:50 1019 30.09 848 25.04 -4.9 23.2 42 -15.9 3.4
04:55 1019 30.09 848 25.04 -4.8 23.3 40 -16.3 2.6
05:00 1019 30.09 848 25.04 -4.6 23.8 42 -15.8 3.6
05:05 1019 30.09 848 25.04 -4.6 23.8 43 -15.4 4.2
05:10 1019 30.09 848 25.04 -4.6 23.7 44 -15.2 4.6
05:15 1019 30.09 848 25.04 -4.7 23.6 44 -15.2 4.6
05:20 1019 30.09 849 25.07 -4.6 23.6 43 -15.6 4
05:25 1020 30.12 849 25.07 -4.7 23.5 44 -15.1 4.8
05:30 1020 30.12 849 25.07 -4.7 23.5 44 -15.3 4.4
05:35 1020 30.12 849 25.07 -4.7 23.6 46 -14.6 5.6
05:40 1020 30.12 849 25.07 -4.8 23.5 46 -14.6 5.8
05:45 1020 30.12 849 25.07 -4.8 23.3 45 -15.1 4.8
05:50 1020 30.12 850 25.1 -4.9 23.2 43 -15.5 4.1
05:55 1020 30.12 850 25.1 -4.8 23.3 45 -15.1 4.8
06:00 1021 30.15 850 25.1 -4.9 23.2 45 -15.2 4.6
06:05 1021 30.15 850 25.1 -4.9 23.2 43 -15.7 3.8
06:10 1021 30.15 850 25.1 -4.6 23.8 38 -17 1.4
06:15 1021 30.15 850 25.1 -4.1 24.6 36 -17 1.4
06:20 1021 30.15 850 25.1 -4 24.9 37 -16.6 2
06:25 1021 30.15 850 25.1 -4.1 24.7 36 -17 1.5
06:30 1021 30.15 850 25.1 -4.1 24.7 38 -16.3 2.6
06:35 1021 30.15 850 25.1 -4.1 24.7 37 -16.8 1.7
06:40 1021 30.15 850 25.1 -4.1 24.6 38 -16.4 2.5
06:45 1021 30.15 851 25.13 -4.2 24.5 40 -15.8 3.6
06:50 1021 30.15 851 25.13 -4.4 24.1 38 -16.7 1.9
06:55 1021 30.15 851 25.13 -4.6 23.7 40 -16.3 2.7
07:00 1021 30.15 851 25.13 -5 23.1 42 -15.9 3.3
07:05 1021 30.15 851 25.13 -4.9 23.2 41 -16.3 2.7
07:10 1021 30.15 851 25.13 -4.7 23.6 41 -16.1 3.1
07:15 1022 30.18 851 25.13 -4.6 23.6 41 -16.2 2.9
07:20 1022 30.18 851 25.13 -4.5 23.8 40 -16.3 2.6
07:25 1022 30.18 851 25.13 -4.4 24 40 -16.1 3.1
07:30 1022 30.18 851 25.13 -4.5 24 40 -16.2 2.8
07:35 1022 30.18 851 25.13 -4.4 24 42 -15.7 3.8
07:40 1022 30.18 851 25.13 -4.6 23.8 42 -15.8 3.6
07:45 1022 30.18 851 25.13 -4.7 23.6 43 -15.5 4
07:50 1022 30.18 851 25.13 -4.7 23.5 41 -16 3.3
07:55 1022 30.18 851 25.13 -4.7 23.5 43 -15.6 4
08:00 1022 30.18 851 25.13 -4.9 23.2 44 -15.5 4.1
08:05 1022 30.18 851 25.13 -5 23.1 43 -15.7 3.8
08:10 1022 30.18 851 25.13 -4.9 23.1 44 -15.5 4.2
08:15 1022 30.18 851 25.13 -5 23.1 44 -15.5 4.1
08:20 1022 30.18 852 25.16 -5 23 44 -15.6 4
08:25 1023 30.21 852 25.16 -4.9 23.2 43 -15.7 3.7
08:30 1023 30.21 852 25.16 -4.9 23.2 44 -15.3 4.5
08:35 1023 30.21 852 25.16 -5 23 46 -15 4.9
08:40 1023 30.21 852 25.16 -5.1 22.8 45 -15.3 4.5
08:45 1023 30.21 852 25.16 -5.1 22.8 44 -15.4 4.2
08:50 1023 30.21 852 25.16 -5 23 43 -15.7 3.7
08:55 1023 30.21 852 25.16 -5.1 22.8 47 -14.8 5.3
09:00 1023 30.21 852 25.16 -5.4 22.2 48 -14.8 5.3
09:05 1023 30.21 852 25.16 -5.5 22.2 48 -14.8 5.4
09:10 1023 30.21 852 25.16 -5.4 22.2 47 -15.1 4.7
09:15 1023 30.21 853 25.19 -5.4 22.3 47 -15 5
09:20 1023 30.21 853 25.19 -5.4 22.4 47 -15.1 4.8
09:25 1023 30.21 853 25.19 -5.1 22.8 44 -15.4 4.2
09:30 1024 30.24 853 25.19 -5 23 46 -14.9 5.3
09:35 1024 30.24 853 25.19 -5 22.9 47 -14.7 5.6
09:40 1024 30.24 853 25.19 -4.9 23.2 47 -14.6 5.7
09:45 1024 30.24 853 25.19 -5 23 46 -15 5.1
09:50 1024 30.24 853 25.19 -5 22.9 47 -14.8 5.4
09:55 1024 30.24 853 25.19 -4.9 23.3 46 -14.8 5.4
10:00 1024 30.24 853 25.19 -4.8 23.4 47 -14.5 6
10:05 1024 30.24 853 25.19 -4.7 23.6 46 -14.6 5.8
10:10 1024 30.24 853 25.19 -4.6 23.6 47 -14.4 6.1
10:15 1024 30.24 853 25.19 -4.5 23.9 44 -15 4.9
10:20 1024 30.24 853 25.19 -4.2 24.4 44 -14.8 5.3
10:25 1024 30.24 853 25.19 -4.1 24.7 43 -14.9 5.2
10:30 1024 30.24 853 25.19 -3.9 25 42 -14.9 5.1
10:35 1024 30.24 854 25.22 -3.7 25.4 41 -15 5
10:40 1025 30.27 854 25.22 -3.2 26.2 41 -14.6 5.7
10:45 1025 30.27 854 25.22 -3.1 26.5 43 -14.1 6.6
10:50 1025 30.27 854 25.22 -3.3 26.1 44 -13.9 7
10:55 1025 30.27 854 25.22 -3.1 26.5 43 -14.1 6.7
11:00 1025 30.27 854 25.22 -2.8 26.9 43 -13.8 7.2
11:05 1025 30.27 854 25.22 -2.7 27.1 40 -14.7 5.6
11:10 1025 30.27 854 25.22 -2.4 27.7 39 -14.7 5.5
11:15 1025 30.27 854 25.22 -2.7 27.1 41 -14.2 6.4
11:20 1025 30.27 854 25.22 -3.9 25 45 -14.2 6.5
11:25 1025 30.27 854 25.22 -3.6 25.5 44 -14.3 6.3
11:30 1025 30.27 854 25.22 -2.8 26.9 43 -13.6 7.5
11:35 1025 30.27 854 25.22 -2.7 27.2 43 -13.6 7.5
11:40 1025 30.27 854 25.22 -2.3 27.8 43 -13.3 8
11:45 1025 30.27 854 25.22 -1.8 28.7 39 -14.2 6.5
11:50 1025 30.27 854 25.22 -2.1 28.2 41 -13.6 7.5
11:55 1025 30.27 854 25.22 -2.6 27.4 44 -13.3 8.1
12:00 1025 30.27 854 25.22 -3.1 26.4 44 -13.6 7.5
12:05 1024 30.24 854 25.22 -3.1 26.4 46 -13.2 8.2
12:10 1025 30.27 854 25.22 -3.2 26.2 47 -13.1 8.4
12:15 1025 30.27 854 25.22 -3 26.7 45 -13.2 8.2
12:20 1024 30.24 854 25.22 -2.7 27.1 44 -13.5 7.7
12:25 1024 30.24 854 25.22 -2.8 27 45 -13.1 8.4
12:30 1025 30.27 854 25.22 -2.7 27.1 44 -13.4 7.9
12:35 1024 30.24 854 25.22 -3.5 25.7 45 -13.7 7.3
12:40 1024 30.24 854 25.22 -3.7 25.4 47 -13.5 7.7
12:45 1024 30.24 854 25.22 -3.1 26.4 44 -13.7 7.3
12:50 1024 30.24 853 25.19 -2.9 26.8 43 -13.7 7.4
12:55 1024 30.24 853 25.19 -2.3 27.9 42 -13.5 7.7
13:00 1024 30.24 853 25.19 -2.1 28.1 42 -13.4 8
13:05 1024 30.24 853 25.19 -2.2 28 41 -13.7 7.4
13:10 1024 30.24 853 25.19 -2.9 26.9 45 -13.1 8.3
13:15 1024 30.24 853 25.19 -3.1 26.4 44 -13.7 7.4
13:20 1024 30.24 853 25.19 -3.1 26.4 44 -13.8 7.2
13:25 1024 30.24 853 25.19 -2.9 26.7 44 -13.5 7.6
13:30 1024 30.24 853 25.19 -3 26.5 43 -13.8 7.1
13:35 1024 30.24 853 25.19 -2.8 26.9 42 -13.9 7
13:40 1024 30.24 853 25.19 -2.8 27 41 -14.4 6.1
13:45 1024 30.24 853 25.19 -2.7 27.1 42 -14 6.7
13:50 1024 30.24 853 25.19 -2.2 28 42 -13.6 7.6
13:55 1024 30.24 853 25.19 -2.6 27.4 41 -14.1 6.6
14:00 1024 30.24 853 25.19 -2.7 27.1 41 -14.1 6.6
14:05 1024 30.24 853 25.19 -2.7 27.1 42 -14 6.7
14:10 1024 30.24 853 25.19 -2.8 27 43 -13.7 7.3
14:15 1024 30.24 853 25.19 -2.8 27 43 -13.6 7.5
14:20 1024 30.24 853 25.19 -2.8 27 44 -13.5 7.7
14:25 1024 30.24 853 25.19 -2.9 26.8 43 -13.8 7.1
14:30 1024 30.24 853 25.19 -2.8 27 42 -14.1 6.7
14:35 1024 30.24 853 25.19 -2.7 27.1 40 -14.5 5.8
14:40 1024 30.24 853 25.19 -2.6 27.4 42 -13.9 7
14:45 1024 30.24 853 25.19 -1.8 28.8 39 -14.1 6.5
14:50 1024 30.24 853 25.19 -2.1 28.3 42 -13.5 7.8
14:55 1024 30.24 853 25.19 -2.7 27.1 41 -14.2 6.5
15:00 1024 30.24 853 25.19 -3.3 26.1 43 -14.2 6.4
15:05 1024 30.24 853 25.19 -3 26.5 42 -14.1 6.6
15:10 1024 30.24 853 25.19 -2.8 27 42 -14 6.7
15:15 1024 30.24 853 25.19 -2.4 27.7 39 -14.4 6
15:20 1024 30.24 853 25.19 -2 28.4 39 -14.1 6.6
15:25 1024 30.24 853 25.19 -1.4 29.5 36 -14.6 5.8
15:30 1024 30.24 853 25.19 -1.4 29.5 38 -14.1 6.7
15:35 1024 30.24 853 25.19 -1.1 30 35 -14.9 5.1
15:40 1024 30.24 853 25.19 -1.3 29.7 35 -14.8 5.4
15:45 1024 30.24 853 25.19 -1.6 29.2 38 -14.2 6.5
15:50 1024 30.24 853 25.19 -2.6 27.3 42 -14 6.8
15:55 1024 30.24 853 25.19 -3.9 25 44 -14.4 6.1
16:00 1024 30.24 853 25.19 -4.3 24.3 45 -14.4 6
16:05 1024 30.24 853 25.19 -4.3 24.2 46 -14.3 6.3
16:10 1024 30.24 853 25.19 -4.3 24.3 44 -14.7 5.5
16:15 1024 30.24 853 25.19 -4.2 24.5 45 -14.4 6
16:20 1024 30.24 853 25.19 -4 24.8 43 -14.8 5.4
16:25 1024 30.24 853 25.19 -4.2 24.4 44 -14.9 5.3
16:30 1024 30.24 853 25.19 -4 24.8 44 -14.6 5.8
16:35 1024 30.24 853 25.19 -3.8 25.1 42 -14.9 5.2
16:40 1024 30.24 853 25.19 -4.3 24.2 47 -13.9 6.9
16:45 1024 30.24 853 25.19 -4.5 24 46 -14.5 5.9
16:50 1024 30.24 853 25.19 -4.9 23.2 49 -14 6.8
16:55 1024 30.24 853 25.19 -4.9 23.2 50 -13.7 7.4
17:00 1024 30.24 853 25.19 -4.9 23.2 49 -14 6.7
17:05 1024 30.24 853 25.19 -5.3 22.4 49 -14.4 6.1
17:10 1024 30.24 853 25.19 -5.3 22.4 50 -14.1 6.6
17:15 1024 30.24 853 25.19 -5.1 22.8 50 -14.1 6.7
17:20 1024 30.24 853 25.19 -5 23 53 -13.2 8.3
17:25 1024 30.24 853 25.19 -5.7 21.7 55 -13.3 8
17:30 1024 30.24 853 25.19 -5.8 21.6 56 -13.2 8.2
17:35 1024 30.24 853 25.19 -5.7 21.7 57 -12.9 8.8
17:40 1024 30.24 853 25.19 -5.9 21.3 58 -12.9 8.8
17:45 1024 30.24 853 25.19 -6 21.3 57 -13.2 8.3
17:50 1024 30.24 853 25.19 -6.1 21 58 -13 8.5
17:55 1024 30.24 853 25.19 -6.3 20.7 58 -13.2 8.2
18:00 1023 30.21 853 25.19 -6.2 20.9 57 -13.3 8
18:05 1023 30.21 853 25.19 -6 21.2 56 -13.4 7.8
18:10 1023 30.21 853 25.19 -6 21.2 56 -13.5 7.7
18:15 1023 30.21 853 25.19 -6.1 21 56 -13.5 7.7
18:20 1023 30.21 853 25.19 -6.5 20.3 58 -13.5 7.6
18:25 1023 30.21 853 25.19 -6.9 19.6 58 -13.8 7.1
18:30 1023 30.21 853 25.19 -7 19.4 59 -13.8 7.2
18:35 1023 30.21 852 25.16 -7.1 19.2 59 -13.7 7.3
18:40 1023 30.21 852 25.16 -7.3 18.8 60 -13.9 7
18:45 1023 30.21 852 25.16 -7.3 18.9 59 -13.9 6.9
18:50 1023 30.21 852 25.16 -7.4 18.7 60 -13.9 6.9
18:55 1023 30.21 852 25.16 -7.7 18.1 61 -14 6.7
19:00 1023 30.21 852 25.16 -8.3 17.1 61 -14.5 6
19:05 1023 30.21 852 25.16 -8.4 16.9 62 -14.5 5.9
19:10 1023 30.21 852 25.16 -8.5 16.7 62 -14.6 5.7
19:15 1023 30.21 852 25.16 -8.3 17 61 -14.6 5.7
19:20 1023 30.21 852 25.16 -8.2 17.2 61 -14.5 5.9
19:25 1023 30.21 852 25.16 -8.3 17.1 61 -14.4 6
19:30 1023 30.21 852 25.16 -8.4 17 62 -14.3 6.2
19:35 1023 30.21 852 25.16 -8.6 16.5 62 -14.6 5.7
19:40 1023 30.21 852 25.16 -8.6 16.6 62 -14.6 5.7
19:45 1023 30.21 852 25.16 -8.4 16.9 60 -14.8 5.3
19:50 1023 30.21 852 25.16 -8.4 17 59 -15 5
19:55 1023 30.21 852 25.16 -8.3 17 59 -15 4.9
20:00 1023 30.21 852 25.16 -8.3 17.2 59 -14.9 5.1
20:05 1023 30.21 852 25.16 -8.3 17 60 -14.8 5.4
20:10 1023 30.21 852 25.16 -8.3 17 60 -14.8 5.4
20:15 1022 30.18 852 25.16 -8.3 17.1 59 -14.9 5.3
20:20 1022 30.18 852 25.16 -8.3 17.1 59 -14.9 5.3
20:25 1022 30.18 851 25.13 -8.4 16.9 60 -14.9 5.1
20:30 1022 30.18 851 25.13 -8.5 16.7 60 -14.9 5.1
20:35 1022 30.18 851 25.13 -8.7 16.3 61 -15 5
20:40 1022 30.18 851 25.13 -8.7 16.3 61 -14.9 5.2
20:45 1022 30.18 851 25.13 -8.9 16 62 -14.9 5.1
20:50 1022 30.18 851 25.13 -8.8 16.2 61 -15 5
20:55 1022 30.18 851 25.13 -8.9 16 62 -15 5.1
21:00 1022 30.18 851 25.13 -9 15.9 61 -15.2 4.7
21:05 1022 30.18 851 25.13 -8.8 16.2 60 -15.2 4.6
21:10 1021 30.15 851 25.13 -8.5 16.7 59 -15.2 4.6
21:15 1021 30.15 850 25.1 -8.2 17.2 58 -15.2 4.6
21:20 1021 30.15 850 25.1 -8.4 17 59 -15.1 4.8
21:25 1021 30.15 850 25.1 -8.3 17.2 57 -15.3 4.5
21:30 1021 30.15 850 25.1 -8.1 17.3 57 -15.3 4.4
21:35 1021 30.15 850 25.1 -8 17.7 56 -15.3 4.5
21:40 1021 30.15 850 25.1 -7.8 17.9 56 -15.2 4.7
21:45 1021 30.15 850 25.1 -7.8 18 56 -15.1 4.9
21:50 1021 30.15 850 25.1 -7.9 17.9 56 -15.1 4.9
21:55 1021 30.15 850 25.1 -7.8 17.9 56 -15.1 4.9
22:00 1021 30.15 850 25.1 -7.9 17.8 58 -14.9 5.2
22:05 1021 30.15 850 25.1 -7.9 17.9 57 -15.1 4.9
22:10 1020 30.12 850 25.1 -7.7 18.1 57 -14.8 5.4
22:15 1020 30.12 850 25.1 -7.9 17.8 59 -14.6 5.7
22:20 1020 30.12 850 25.1 -8 17.6 58 -14.8 5.3
22:25 1020 30.12 850 25.1 -7.8 17.9 56 -15.1 4.9
22:30 1020 30.12 850 25.1 -7.6 18.4 57 -14.8 5.4
22:35 1020 30.12 849 25.07 -7.5 18.5 57 -14.7 5.6
22:40 1020 30.12 849 25.07 -7.4 18.6 57 -14.6 5.7
22:45 1020 30.12 849 25.07 -7.1 19.2 55 -14.8 5.4
22:50 1020 30.12 849 25.07 -7.2 19.1 55 -14.7 5.5
22:55 1020 30.12 849 25.07 -7.1 19.1 54 -15.1 4.9
23:00 1020 30.12 849 25.07 -7.1 19.2 55 -14.7 5.6
23:05 1020 30.12 849 25.07 -7.2 19.1 55 -14.7 5.5
23:10 1020 30.12 849 25.07 -7.2 19 56 -14.6 5.6
23:15 1020 30.12 849 25.07 -7.2 19 56 -14.5 5.8
23:20 1020 30.12 849 25.07 -7.3 18.9 57 -14.4 6
23:25 1020 30.12 849 25.07 -7.4 18.7 56 -14.6 5.6
23:30 1020 30.12 849 25.07 -7.5 18.5 55 -15 5.1
23:35 1020 30.12 849 25.07 -7.5 18.6 55 -15.1 4.8
23:40 1020 30.12 849 25.07 -7.3 19 58 -14.2 6.4
23:45 1020 30.12 849 25.07 -7.2 19.1 57 -14.2 6.4
23:50 1020 30.12 849 25.07 -7.2 19 57 -14.4 6.1
23:55 1020 30.12 849 25.07 -7.1 19.3 56 -14.5 6
24:00 1020 30.12 849 25.07 -7.1 19.3 57 -14.3 6.3